sensor_id;sensor_type;location;lat;lon;timestamp;P1;durP1;ratioP1;P2;durP2;ratioP2
27985;SDS011;15453;53.692;10.168;2022-10-16T00:00:52;4.50;;;3.65;;
27985;SDS011;15453;53.692;10.168;2022-10-16T00:03:17;5.38;;;3.78;;
27985;SDS011;15453;53.692;10.168;2022-10-16T00:05:43;5.82;;;3.92;;
27985;SDS011;15453;53.692;10.168;2022-10-16T00:08:09;8.40;;;4.80;;
27985;SDS011;15453;53.692;10.168;2022-10-16T00:10:36;5.13;;;3.85;;
27985;SDS011;15453;53.692;10.168;2022-10-16T00:13:01;5.78;;;4.20;;
27985;SDS011;15453;53.692;10.168;2022-10-16T00:15:27;6.57;;;4.07;;
27985;SDS011;15453;53.692;10.168;2022-10-16T00:17:52;6.32;;;4.10;;
27985;SDS011;15453;53.692;10.168;2022-10-16T00:20:18;7.47;;;4.25;;
27985;SDS011;15453;53.692;10.168;2022-10-16T00:22:43;5.35;;;3.70;;
27985;SDS011;15453;53.692;10.168;2022-10-16T00:25:08;6.28;;;4.07;;
27985;SDS011;15453;53.692;10.168;2022-10-16T00:27:34;9.77;;;4.88;;
27985;SDS011;15453;53.692;10.168;2022-10-16T00:29:59;6.82;;;4.47;;
27985;SDS011;15453;53.692;10.168;2022-10-16T00:32:24;7.35;;;4.32;;
27985;SDS011;15453;53.692;10.168;2022-10-16T00:34:49;7.35;;;4.40;;
27985;SDS011;15453;53.692;10.168;2022-10-16T00:37:15;6.53;;;4.43;;
27985;SDS011;15453;53.692;10.168;2022-10-16T00:39:40;8.88;;;4.13;;
27985;SDS011;15453;53.692;10.168;2022-10-16T00:42:05;5.03;;;3.58;;
27985;SDS011;15453;53.692;10.168;2022-10-16T00:44:41;4.88;;;3.42;;
27985;SDS011;15453;53.692;10.168;2022-10-16T00:47:11;5.15;;;3.90;;
27985;SDS011;15453;53.692;10.168;2022-10-16T00:49:40;6.55;;;3.53;;
27985;SDS011;15453;53.692;10.168;2022-10-16T00:52:06;7.65;;;3.67;;
27985;SDS011;15453;53.692;10.168;2022-10-16T00:54:31;4.70;;;3.17;;
27985;SDS011;15453;53.692;10.168;2022-10-16T00:56:58;6.22;;;2.83;;
27985;SDS011;15453;53.692;10.168;2022-10-16T00:59:27;5.47;;;2.92;;
27985;SDS011;15453;53.692;10.168;2022-10-16T01:01:54;4.10;;;2.58;;
27985;SDS011;15453;53.692;10.168;2022-10-16T01:04:19;5.30;;;2.65;;
27985;SDS011;15453;53.692;10.168;2022-10-16T01:06:51;3.35;;;2.50;;
27985;SDS011;15453;53.692;10.168;2022-10-16T01:17:39;5.78;;;2.25;;
27985;SDS011;15453;53.692;10.168;2022-10-16T01:25:49;2.55;;;1.67;;
27985;SDS011;15453;53.692;10.168;2022-10-16T01:28:25;3.60;;;1.75;;
27985;SDS011;15453;53.692;10.168;2022-10-16T01:30:55;3.95;;;2.13;;
27985;SDS011;15453;53.692;10.168;2022-10-16T01:33:24;4.72;;;2.13;;
27985;SDS011;15453;53.692;10.168;2022-10-16T01:35:56;5.03;;;1.90;;
27985;SDS011;15453;53.692;10.168;2022-10-16T01:38:37;3.03;;;1.70;;
27985;SDS011;15453;53.692;10.168;2022-10-16T01:41:06;3.35;;;1.83;;
27985;SDS011;15453;53.692;10.168;2022-10-16T01:43:39;2.83;;;1.63;;
27985;SDS011;15453;53.692;10.168;2022-10-16T01:46:08;2.47;;;1.70;;
27985;SDS011;15453;53.692;10.168;2022-10-16T01:48:35;3.03;;;1.63;;
27985;SDS011;15453;53.692;10.168;2022-10-16T01:51:08;2.13;;;1.38;;
27985;SDS011;15453;53.692;10.168;2022-10-16T01:53:36;2.78;;;1.70;;
27985;SDS011;15453;53.692;10.168;2022-10-16T01:56:02;6.28;;;1.88;;
27985;SDS011;15453;53.692;10.168;2022-10-16T01:58:30;3.45;;;1.73;;
27985;SDS011;15453;53.692;10.168;2022-10-16T02:01:01;3.65;;;1.60;;
27985;SDS011;15453;53.692;10.168;2022-10-16T02:03:29;4.47;;;1.77;;
27985;SDS011;15453;53.692;10.168;2022-10-16T02:05:55;2.33;;;1.52;;
27985;SDS011;15453;53.692;10.168;2022-10-16T02:08:23;4.00;;;1.67;;
27985;SDS011;15453;53.692;10.168;2022-10-16T02:10:50;5.85;;;2.15;;
27985;SDS011;15453;53.692;10.168;2022-10-16T02:13:17;3.05;;;1.52;;
27985;SDS011;15453;53.692;10.168;2022-10-16T02:15:46;3.33;;;1.50;;
27985;SDS011;15453;53.692;10.168;2022-10-16T02:18:12;6.45;;;2.17;;
27985;SDS011;15453;53.692;10.168;2022-10-16T02:20:47;3.88;;;1.35;;
27985;SDS011;15453;53.692;10.168;2022-10-16T02:23:19;4.15;;;1.60;;
27985;SDS011;15453;53.692;10.168;2022-10-16T02:25:49;2.83;;;1.63;;
27985;SDS011;15453;53.692;10.168;2022-10-16T02:28:17;3.03;;;1.83;;
27985;SDS011;15453;53.692;10.168;2022-10-16T02:30:49;3.50;;;1.55;;
27985;SDS011;15453;53.692;10.168;2022-10-16T02:33:19;3.25;;;1.40;;
27985;SDS011;15453;53.692;10.168;2022-10-16T02:35:47;3.55;;;1.63;;
27985;SDS011;15453;53.692;10.168;2022-10-16T02:38:15;2.13;;;1.33;;
27985;SDS011;15453;53.692;10.168;2022-10-16T02:40:41;2.80;;;1.50;;
27985;SDS011;15453;53.692;10.168;2022-10-16T02:43:07;4.45;;;1.50;;
27985;SDS011;15453;53.692;10.168;2022-10-16T02:45:33;2.72;;;1.23;;
27985;SDS011;15453;53.692;10.168;2022-10-16T02:47:59;3.83;;;1.65;;
27985;SDS011;15453;53.692;10.168;2022-10-16T02:50:24;3.13;;;1.27;;
27985;SDS011;15453;53.692;10.168;2022-10-16T02:52:50;3.28;;;1.20;;
27985;SDS011;15453;53.692;10.168;2022-10-16T02:55:15;3.47;;;1.48;;
27985;SDS011;15453;53.692;10.168;2022-10-16T02:57:41;2.90;;;1.67;;
27985;SDS011;15453;53.692;10.168;2022-10-16T03:00:07;4.63;;;1.48;;
27985;SDS011;15453;53.692;10.168;2022-10-16T03:02:34;4.65;;;1.65;;
27985;SDS011;15453;53.692;10.168;2022-10-16T03:04:59;4.72;;;1.92;;
27985;SDS011;15453;53.692;10.168;2022-10-16T03:07:25;5.13;;;1.80;;
27985;SDS011;15453;53.692;10.168;2022-10-16T03:09:50;4.05;;;1.60;;
27985;SDS011;15453;53.692;10.168;2022-10-16T03:12:15;2.70;;;1.63;;
27985;SDS011;15453;53.692;10.168;2022-10-16T03:14:40;2.63;;;1.40;;
27985;SDS011;15453;53.692;10.168;2022-10-16T03:17:06;2.22;;;1.70;;
27985;SDS011;15453;53.692;10.168;2022-10-16T03:19:31;2.17;;;1.45;;
27985;SDS011;15453;53.692;10.168;2022-10-16T03:21:56;4.70;;;1.70;;
27985;SDS011;15453;53.692;10.168;2022-10-16T03:24:22;2.47;;;1.38;;
27985;SDS011;15453;53.692;10.168;2022-10-16T03:26:47;3.28;;;1.98;;
27985;SDS011;15453;53.692;10.168;2022-10-16T03:29:12;3.33;;;1.60;;
27985;SDS011;15453;53.692;10.168;2022-10-16T03:31:38;4.00;;;1.65;;
27985;SDS011;15453;53.692;10.168;2022-10-16T03:34:03;2.40;;;1.58;;
27985;SDS011;15453;53.692;10.168;2022-10-16T03:36:28;2.88;;;1.60;;
27985;SDS011;15453;53.692;10.168;2022-10-16T03:38:53;5.97;;;2.05;;
27985;SDS011;15453;53.692;10.168;2022-10-16T03:41:18;4.57;;;1.45;;
27985;SDS011;15453;53.692;10.168;2022-10-16T03:43:44;3.70;;;1.83;;
27985;SDS011;15453;53.692;10.168;2022-10-16T03:46:09;3.95;;;1.70;;
27985;SDS011;15453;53.692;10.168;2022-10-16T03:48:34;4.93;;;1.60;;
27985;SDS011;15453;53.692;10.168;2022-10-16T03:50:59;2.85;;;2.00;;
27985;SDS011;15453;53.692;10.168;2022-10-16T03:53:25;4.03;;;1.73;;
27985;SDS011;15453;53.692;10.168;2022-10-16T03:55:50;4.88;;;1.70;;
27985;SDS011;15453;53.692;10.168;2022-10-16T03:58:15;4.45;;;1.90;;
27985;SDS011;15453;53.692;10.168;2022-10-16T04:00:42;4.28;;;1.60;;
27985;SDS011;15453;53.692;10.168;2022-10-16T04:03:07;8.95;;;1.63;;
27985;SDS011;15453;53.692;10.168;2022-10-16T04:05:33;2.60;;;1.42;;
27985;SDS011;15453;53.692;10.168;2022-10-16T04:07:58;3.03;;;1.60;;
27985;SDS011;15453;53.692;10.168;2022-10-16T04:10:23;3.70;;;1.77;;
27985;SDS011;15453;53.692;10.168;2022-10-16T04:12:48;4.30;;;1.80;;
27985;SDS011;15453;53.692;10.168;2022-10-16T04:15:14;4.13;;;1.50;;
27985;SDS011;15453;53.692;10.168;2022-10-16T04:17:39;2.33;;;1.58;;
27985;SDS011;15453;53.692;10.168;2022-10-16T04:20:04;3.33;;;1.60;;
27985;SDS011;15453;53.692;10.168;2022-10-16T04:22:30;4.20;;;1.60;;
27985;SDS011;15453;53.692;10.168;2022-10-16T04:24:55;1.98;;;1.48;;
27985;SDS011;15453;53.692;10.168;2022-10-16T04:27:21;5.40;;;1.30;;
27985;SDS011;15453;53.692;10.168;2022-10-16T04:29:46;5.70;;;1.58;;
27985;SDS011;15453;53.692;10.168;2022-10-16T04:32:11;2.95;;;1.25;;
27985;SDS011;15453;53.692;10.168;2022-10-16T04:34:38;2.95;;;1.45;;
27985;SDS011;15453;53.692;10.168;2022-10-16T04:37:04;3.65;;;1.13;;
27985;SDS011;15453;53.692;10.168;2022-10-16T04:41:57;4.05;;;1.48;;
27985;SDS011;15453;53.692;10.168;2022-10-16T04:44:23;8.38;;;1.60;;
27985;SDS011;15453;53.692;10.168;2022-10-16T04:46:50;2.60;;;1.15;;
27985;SDS011;15453;53.692;10.168;2022-10-16T04:49:15;2.25;;;1.27;;
27985;SDS011;15453;53.692;10.168;2022-10-16T04:51:41;3.08;;;1.27;;
27985;SDS011;15453;53.692;10.168;2022-10-16T04:54:06;6.45;;;1.40;;
27985;SDS011;15453;53.692;10.168;2022-10-16T04:56:31;4.85;;;1.25;;
27985;SDS011;15453;53.692;10.168;2022-10-16T04:58:56;2.85;;;1.27;;
27985;SDS011;15453;53.692;10.168;2022-10-16T05:01:22;3.25;;;1.35;;
27985;SDS011;15453;53.692;10.168;2022-10-16T05:03:47;4.38;;;1.23;;
27985;SDS011;15453;53.692;10.168;2022-10-16T05:06:12;3.65;;;1.25;;
27985;SDS011;15453;53.692;10.168;2022-10-16T05:08:37;4.18;;;1.58;;
27985;SDS011;15453;53.692;10.168;2022-10-16T05:11:03;3.05;;;1.30;;
27985;SDS011;15453;53.692;10.168;2022-10-16T05:13:28;2.67;;;1.25;;
27985;SDS011;15453;53.692;10.168;2022-10-16T05:15:53;3.22;;;1.20;;
27985;SDS011;15453;53.692;10.168;2022-10-16T05:18:18;4.50;;;1.50;;
27985;SDS011;15453;53.692;10.168;2022-10-16T05:20:44;4.32;;;1.05;;
27985;SDS011;15453;53.692;10.168;2022-10-16T05:23:09;2.63;;;1.35;;
27985;SDS011;15453;53.692;10.168;2022-10-16T05:25:37;2.65;;;1.30;;
27985;SDS011;15453;53.692;10.168;2022-10-16T05:28:02;7.07;;;1.50;;
27985;SDS011;15453;53.692;10.168;2022-10-16T05:30:28;3.90;;;1.40;;
27985;SDS011;15453;53.692;10.168;2022-10-16T05:32:53;3.67;;;1.45;;
27985;SDS011;15453;53.692;10.168;2022-10-16T05:35:19;4.68;;;1.50;;
27985;SDS011;15453;53.692;10.168;2022-10-16T05:37:45;4.05;;;1.98;;
27985;SDS011;15453;53.692;10.168;2022-10-16T05:40:10;2.38;;;1.30;;
27985;SDS011;15453;53.692;10.168;2022-10-16T05:42:37;6.32;;;1.88;;
27985;SDS011;15453;53.692;10.168;2022-10-16T05:45:03;2.50;;;1.48;;
27985;SDS011;15453;53.692;10.168;2022-10-16T05:47:30;4.18;;;1.50;;
27985;SDS011;15453;53.692;10.168;2022-10-16T05:49:55;6.47;;;1.60;;
27985;SDS011;15453;53.692;10.168;2022-10-16T05:52:20;2.47;;;1.67;;
27985;SDS011;15453;53.692;10.168;2022-10-16T05:54:46;4.13;;;1.85;;
27985;SDS011;15453;53.692;10.168;2022-10-16T05:57:11;3.85;;;1.48;;
27985;SDS011;15453;53.692;10.168;2022-10-16T05:59:36;4.07;;;1.88;;
27985;SDS011;15453;53.692;10.168;2022-10-16T06:02:02;4.07;;;1.38;;
27985;SDS011;15453;53.692;10.168;2022-10-16T06:04:27;2.35;;;1.48;;
27985;SDS011;15453;53.692;10.168;2022-10-16T06:06:52;3.03;;;1.55;;
27985;SDS011;15453;53.692;10.168;2022-10-16T06:09:17;10.02;;;1.70;;
27985;SDS011;15453;53.692;10.168;2022-10-16T06:11:42;2.90;;;1.80;;
27985;SDS011;15453;53.692;10.168;2022-10-16T06:14:08;4.70;;;1.50;;
27985;SDS011;15453;53.692;10.168;2022-10-16T06:16:34;2.28;;;1.35;;
27985;SDS011;15453;53.692;10.168;2022-10-16T06:19:00;3.15;;;1.40;;
27985;SDS011;15453;53.692;10.168;2022-10-16T06:21:27;5.22;;;1.80;;
27985;SDS011;15453;53.692;10.168;2022-10-16T06:23:53;6.80;;;1.95;;
27985;SDS011;15453;53.692;10.168;2022-10-16T06:26:20;4.45;;;1.55;;
27985;SDS011;15453;53.692;10.168;2022-10-16T06:28:47;4.30;;;1.60;;
27985;SDS011;15453;53.692;10.168;2022-10-16T06:31:13;2.70;;;1.55;;
27985;SDS011;15453;53.692;10.168;2022-10-16T06:33:39;3.70;;;1.90;;
27985;SDS011;15453;53.692;10.168;2022-10-16T06:36:06;3.22;;;1.63;;
27985;SDS011;15453;53.692;10.168;2022-10-16T06:38:34;3.45;;;1.60;;
27985;SDS011;15453;53.692;10.168;2022-10-16T06:40:59;2.88;;;1.55;;
27985;SDS011;15453;53.692;10.168;2022-10-16T06:43:25;2.75;;;1.88;;
27985;SDS011;15453;53.692;10.168;2022-10-16T06:45:52;3.30;;;1.80;;
27985;SDS011;15453;53.692;10.168;2022-10-16T06:48:18;4.00;;;2.20;;
27985;SDS011;15453;53.692;10.168;2022-10-16T06:50:44;8.18;;;3.20;;
27985;SDS011;15453;53.692;10.168;2022-10-16T06:53:09;6.85;;;1.98;;
27985;SDS011;15453;53.692;10.168;2022-10-16T06:55:34;2.50;;;1.70;;
27985;SDS011;15453;53.692;10.168;2022-10-16T06:58:00;4.35;;;2.03;;
27985;SDS011;15453;53.692;10.168;2022-10-16T07:00:25;4.38;;;2.30;;
27985;SDS011;15453;53.692;10.168;2022-10-16T07:02:50;6.55;;;2.05;;
27985;SDS011;15453;53.692;10.168;2022-10-16T07:05:15;5.10;;;1.92;;
27985;SDS011;15453;53.692;10.168;2022-10-16T07:07:41;3.08;;;1.90;;
27985;SDS011;15453;53.692;10.168;2022-10-16T07:10:06;4.20;;;1.98;;
27985;SDS011;15453;53.692;10.168;2022-10-16T07:12:32;6.05;;;1.90;;
27985;SDS011;15453;53.692;10.168;2022-10-16T07:14:57;4.97;;;2.03;;
27985;SDS011;15453;53.692;10.168;2022-10-16T07:17:22;4.53;;;2.47;;
27985;SDS011;15453;53.692;10.168;2022-10-16T07:19:48;6.50;;;3.00;;
27985;SDS011;15453;53.692;10.168;2022-10-16T07:22:13;6.43;;;2.78;;
27985;SDS011;15453;53.692;10.168;2022-10-16T07:24:39;5.43;;;2.30;;
27985;SDS011;15453;53.692;10.168;2022-10-16T07:27:04;6.32;;;1.95;;
27985;SDS011;15453;53.692;10.168;2022-10-16T07:29:29;5.88;;;2.22;;
27985;SDS011;15453;53.692;10.168;2022-10-16T07:31:54;6.78;;;2.67;;
27985;SDS011;15453;53.692;10.168;2022-10-16T07:34:20;4.70;;;2.30;;
27985;SDS011;15453;53.692;10.168;2022-10-16T07:36:50;4.35;;;2.05;;
27985;SDS011;15453;53.692;10.168;2022-10-16T07:39:16;4.00;;;2.13;;
27985;SDS011;15453;53.692;10.168;2022-10-16T07:41:41;4.78;;;2.00;;
27985;SDS011;15453;53.692;10.168;2022-10-16T07:44:07;2.90;;;2.03;;
27985;SDS011;15453;53.692;10.168;2022-10-16T07:46:32;6.18;;;1.80;;
27985;SDS011;15453;53.692;10.168;2022-10-16T07:48:59;3.53;;;2.05;;
27985;SDS011;15453;53.692;10.168;2022-10-16T07:51:24;4.80;;;2.35;;
27985;SDS011;15453;53.692;10.168;2022-10-16T07:53:51;8.30;;;2.15;;
27985;SDS011;15453;53.692;10.168;2022-10-16T07:56:17;7.63;;;2.60;;
27985;SDS011;15453;53.692;10.168;2022-10-16T07:58:43;6.05;;;2.53;;
27985;SDS011;15453;53.692;10.168;2022-10-16T08:01:10;3.03;;;2.00;;
27985;SDS011;15453;53.692;10.168;2022-10-16T08:03:38;4.32;;;2.20;;
27985;SDS011;15453;53.692;10.168;2022-10-16T08:06:06;7.85;;;2.38;;
27985;SDS011;15453;53.692;10.168;2022-10-16T08:08:31;6.32;;;1.67;;
27985;SDS011;15453;53.692;10.168;2022-10-16T08:10:57;5.28;;;2.47;;
27985;SDS011;15453;53.692;10.168;2022-10-16T08:13:22;4.88;;;2.00;;
27985;SDS011;15453;53.692;10.168;2022-10-16T08:15:48;3.58;;;1.85;;
27985;SDS011;15453;53.692;10.168;2022-10-16T08:18:14;5.32;;;2.00;;
27985;SDS011;15453;53.692;10.168;2022-10-16T08:20:40;5.68;;;2.33;;
27985;SDS011;15453;53.692;10.168;2022-10-16T08:23:06;7.00;;;2.42;;
27985;SDS011;15453;53.692;10.168;2022-10-16T08:25:33;3.65;;;1.88;;
27985;SDS011;15453;53.692;10.168;2022-10-16T08:28:00;6.05;;;2.03;;
27985;SDS011;15453;53.692;10.168;2022-10-16T08:30:25;2.83;;;1.75;;
27985;SDS011;15453;53.692;10.168;2022-10-16T08:32:50;2.63;;;1.52;;
27985;SDS011;15453;53.692;10.168;2022-10-16T08:35:16;2.55;;;1.67;;
27985;SDS011;15453;53.692;10.168;2022-10-16T08:37:41;2.60;;;1.50;;
27985;SDS011;15453;53.692;10.168;2022-10-16T08:40:14;5.78;;;1.90;;
27985;SDS011;15453;53.692;10.168;2022-10-16T08:48:13;3.88;;;1.77;;
27985;SDS011;15453;53.692;10.168;2022-10-16T08:50:42;3.47;;;1.92;;
27985;SDS011;15453;53.692;10.168;2022-10-16T08:53:10;2.58;;;1.50;;
27985;SDS011;15453;53.692;10.168;2022-10-16T08:55:50;3.75;;;1.85;;
27985;SDS011;15453;53.692;10.168;2022-10-16T08:58:17;5.25;;;2.05;;
27985;SDS011;15453;53.692;10.168;2022-10-16T09:00:43;5.22;;;1.88;;
27985;SDS011;15453;53.692;10.168;2022-10-16T09:03:28;3.70;;;1.63;;
27985;SDS011;15453;53.692;10.168;2022-10-16T09:06:07;3.78;;;1.98;;
27985;SDS011;15453;53.692;10.168;2022-10-16T09:15:03;6.13;;;1.55;;
27985;SDS011;15453;53.692;10.168;2022-10-16T09:22:44;3.83;;;1.73;;
27985;SDS011;15453;53.692;10.168;2022-10-16T09:25:11;3.05;;;1.73;;
27985;SDS011;15453;53.692;10.168;2022-10-16T09:27:42;4.68;;;1.60;;
27985;SDS011;15453;53.692;10.168;2022-10-16T09:30:17;2.70;;;1.60;;
27985;SDS011;15453;53.692;10.168;2022-10-16T09:32:44;3.60;;;1.58;;
27985;SDS011;15453;53.692;10.168;2022-10-16T09:35:16;4.32;;;1.90;;
27985;SDS011;15453;53.692;10.168;2022-10-16T09:37:44;4.78;;;2.08;;
27985;SDS011;15453;53.692;10.168;2022-10-16T09:40:25;5.00;;;1.48;;
27985;SDS011;15453;53.692;10.168;2022-10-16T09:42:56;4.70;;;1.20;;
27985;SDS011;15453;53.692;10.168;2022-10-16T09:45:27;4.15;;;1.40;;
27985;SDS011;15453;53.692;10.168;2022-10-16T09:47:52;4.28;;;1.77;;
27985;SDS011;15453;53.692;10.168;2022-10-16T09:50:24;4.00;;;1.30;;
27985;SDS011;15453;53.692;10.168;2022-10-16T09:53:01;4.35;;;1.40;;
27985;SDS011;15453;53.692;10.168;2022-10-16T09:55:28;4.22;;;1.23;;
27985;SDS011;15453;53.692;10.168;2022-10-16T09:57:54;8.65;;;1.60;;
27985;SDS011;15453;53.692;10.168;2022-10-16T10:00:20;4.20;;;1.50;;
27985;SDS011;15453;53.692;10.168;2022-10-16T10:02:47;6.00;;;1.77;;
27985;SDS011;15453;53.692;10.168;2022-10-16T10:05:23;7.70;;;1.50;;
27985;SDS011;15453;53.692;10.168;2022-10-16T10:07:54;4.38;;;1.02;;
27985;SDS011;15453;53.692;10.168;2022-10-16T10:10:21;7.30;;;1.00;;
27985;SDS011;15453;53.692;10.168;2022-10-16T10:12:48;2.65;;;1.27;;
27985;SDS011;15453;53.692;10.168;2022-10-16T10:15:13;3.72;;;0.80;;
27985;SDS011;15453;53.692;10.168;2022-10-16T10:17:55;4.10;;;1.25;;
27985;SDS011;15453;53.692;10.168;2022-10-16T10:22:55;3.20;;;1.27;;
27985;SDS011;15453;53.692;10.168;2022-10-16T10:25:33;4.53;;;1.20;;
27985;SDS011;15453;53.692;10.168;2022-10-16T10:30:49;4.03;;;1.20;;
27985;SDS011;15453;53.692;10.168;2022-10-16T10:35:54;3.03;;;1.10;;
27985;SDS011;15453;53.692;10.168;2022-10-16T10:38:36;2.75;;;1.10;;
27985;SDS011;15453;53.692;10.168;2022-10-16T10:41:13;5.50;;;1.52;;
27985;SDS011;15453;53.692;10.168;2022-10-16T10:46:51;3.88;;;1.40;;
27985;SDS011;15453;53.692;10.168;2022-10-16T10:49:37;5.90;;;1.70;;
27985;SDS011;15453;53.692;10.168;2022-10-16T10:52:13;5.10;;;1.50;;
27985;SDS011;15453;53.692;10.168;2022-10-16T11:00:51;5.55;;;1.30;;
27985;SDS011;15453;53.692;10.168;2022-10-16T11:03:40;5.03;;;1.52;;
27985;SDS011;15453;53.692;10.168;2022-10-16T11:06:19;3.90;;;1.23;;
27985;SDS011;15453;53.692;10.168;2022-10-16T11:08:57;3.63;;;1.10;;
27985;SDS011;15453;53.692;10.168;2022-10-16T11:14:06;3.92;;;1.08;;
27985;SDS011;15453;53.692;10.168;2022-10-16T11:16:42;2.40;;;0.85;;
27985;SDS011;15453;53.692;10.168;2022-10-16T11:19:19;4.78;;;1.50;;
27985;SDS011;15453;53.692;10.168;2022-10-16T11:21:51;4.80;;;1.20;;
27985;SDS011;15453;53.692;10.168;2022-10-16T11:24:32;3.90;;;1.02;;
27985;SDS011;15453;53.692;10.168;2022-10-16T11:27:08;4.47;;;1.10;;
27985;SDS011;15453;53.692;10.168;2022-10-16T11:29:39;4.07;;;1.00;;
27985;SDS011;15453;53.692;10.168;2022-10-16T11:32:17;7.57;;;1.38;;
27985;SDS011;15453;53.692;10.168;2022-10-16T11:34:52;5.15;;;1.00;;
27985;SDS011;15453;53.692;10.168;2022-10-16T11:37:26;3.20;;;0.80;;
27985;SDS011;15453;53.692;10.168;2022-10-16T11:39:58;6.30;;;1.40;;
27985;SDS011;15453;53.692;10.168;2022-10-16T11:42:40;3.63;;;1.38;;
27985;SDS011;15453;53.692;10.168;2022-10-16T11:48:05;3.67;;;1.40;;
27985;SDS011;15453;53.692;10.168;2022-10-16T11:50:52;3.33;;;1.08;;
27985;SDS011;15453;53.692;10.168;2022-10-16T11:56:05;4.15;;;1.33;;
27985;SDS011;15453;53.692;10.168;2022-10-16T11:58:32;3.50;;;1.17;;
27985;SDS011;15453;53.692;10.168;2022-10-16T12:01:13;3.55;;;0.80;;
27985;SDS011;15453;53.692;10.168;2022-10-16T12:03:46;4.90;;;1.30;;
27985;SDS011;15453;53.692;10.168;2022-10-16T12:09:02;5.10;;;1.25;;
27985;SDS011;15453;53.692;10.168;2022-10-16T12:14:06;5.30;;;1.30;;
27985;SDS011;15453;53.692;10.168;2022-10-16T12:19:11;4.27;;;1.10;;
27985;SDS011;15453;53.692;10.168;2022-10-16T12:21:39;5.60;;;1.23;;
27985;SDS011;15453;53.692;10.168;2022-10-16T12:24:05;3.35;;;1.00;;
27985;SDS011;15453;53.692;10.168;2022-10-16T12:26:37;3.35;;;0.98;;
27985;SDS011;15453;53.692;10.168;2022-10-16T12:29:14;4.68;;;1.38;;
27985;SDS011;15453;53.692;10.168;2022-10-16T12:35:01;6.90;;;1.23;;
27985;SDS011;15453;53.692;10.168;2022-10-16T12:37:32;6.78;;;1.35;;
27985;SDS011;15453;53.692;10.168;2022-10-16T12:39:59;6.47;;;1.20;;
27985;SDS011;15453;53.692;10.168;2022-10-16T12:42:36;6.55;;;1.20;;
27985;SDS011;15453;53.692;10.168;2022-10-16T12:45:02;3.88;;;1.27;;
27985;SDS011;15453;53.692;10.168;2022-10-16T12:47:49;9.40;;;1.35;;
27985;SDS011;15453;53.692;10.168;2022-10-16T12:50:23;6.05;;;1.17;;
27985;SDS011;15453;53.692;10.168;2022-10-16T12:52:54;5.55;;;1.20;;
27985;SDS011;15453;53.692;10.168;2022-10-16T12:55:20;3.80;;;0.80;;
27985;SDS011;15453;53.692;10.168;2022-10-16T13:00:39;7.15;;;1.10;;
27985;SDS011;15453;53.692;10.168;2022-10-16T13:08:47;3.50;;;1.23;;
27985;SDS011;15453;53.692;10.168;2022-10-16T13:11:32;4.75;;;1.48;;
27985;SDS011;15453;53.692;10.168;2022-10-16T13:32:46;3.50;;;1.10;;
27985;SDS011;15453;53.692;10.168;2022-10-16T13:35:23;5.53;;;1.48;;
27985;SDS011;15453;53.692;10.168;2022-10-16T13:37:50;7.88;;;1.60;;
27985;SDS011;15453;53.692;10.168;2022-10-16T13:40:20;3.90;;;1.20;;
27985;SDS011;15453;53.692;10.168;2022-10-16T13:42:47;5.60;;;1.23;;
27985;SDS011;15453;53.692;10.168;2022-10-16T13:45:23;7.22;;;1.45;;
27985;SDS011;15453;53.692;10.168;2022-10-16T13:48:00;4.45;;;1.95;;
27985;SDS011;15453;53.692;10.168;2022-10-16T13:50:26;5.72;;;1.80;;
27985;SDS011;15453;53.692;10.168;2022-10-16T13:52:51;3.90;;;1.70;;
27985;SDS011;15453;53.692;10.168;2022-10-16T13:55:27;6.38;;;1.90;;
27985;SDS011;15453;53.692;10.168;2022-10-16T13:57:53;8.30;;;1.88;;
27985;SDS011;15453;53.692;10.168;2022-10-16T14:00:19;4.55;;;1.50;;
27985;SDS011;15453;53.692;10.168;2022-10-16T14:02:49;3.92;;;1.55;;
27985;SDS011;15453;53.692;10.168;2022-10-16T14:05:17;5.35;;;2.30;;
27985;SDS011;15453;53.692;10.168;2022-10-16T14:07:42;7.13;;;1.95;;
27985;SDS011;15453;53.692;10.168;2022-10-16T14:10:18;6.47;;;1.63;;
27985;SDS011;15453;53.692;10.168;2022-10-16T14:15:21;6.40;;;1.83;;
27985;SDS011;15453;53.692;10.168;2022-10-16T14:17:49;3.22;;;1.33;;
27985;SDS011;15453;53.692;10.168;2022-10-16T14:20:15;5.18;;;2.20;;
27985;SDS011;15453;53.692;10.168;2022-10-16T14:22:41;8.10;;;1.85;;
27985;SDS011;15453;53.692;10.168;2022-10-16T14:27:45;5.55;;;1.80;;
27985;SDS011;15453;53.692;10.168;2022-10-16T14:30:21;2.90;;;1.00;;
27985;SDS011;15453;53.692;10.168;2022-10-16T14:32:54;6.18;;;1.50;;
27985;SDS011;15453;53.692;10.168;2022-10-16T14:35:43;4.97;;;1.17;;
27985;SDS011;15453;53.692;10.168;2022-10-16T14:38:16;5.93;;;1.50;;
27985;SDS011;15453;53.692;10.168;2022-10-16T14:40:46;4.75;;;1.20;;
27985;SDS011;15453;53.692;10.168;2022-10-16T14:43:26;4.90;;;1.58;;
27985;SDS011;15453;53.692;10.168;2022-10-16T14:45:56;4.07;;;1.08;;
27985;SDS011;15453;53.692;10.168;2022-10-16T14:48:22;7.18;;;1.38;;
27985;SDS011;15453;53.692;10.168;2022-10-16T14:50:48;3.22;;;0.85;;
27985;SDS011;15453;53.692;10.168;2022-10-16T14:53:14;3.70;;;0.90;;
27985;SDS011;15453;53.692;10.168;2022-10-16T14:55:40;5.10;;;1.30;;
27985;SDS011;15453;53.692;10.168;2022-10-16T14:58:11;3.65;;;0.98;;
27985;SDS011;15453;53.692;10.168;2022-10-16T15:00:41;4.15;;;1.42;;
27985;SDS011;15453;53.692;10.168;2022-10-16T15:03:06;4.88;;;1.15;;
27985;SDS011;15453;53.692;10.168;2022-10-16T15:05:32;5.60;;;1.10;;
27985;SDS011;15453;53.692;10.168;2022-10-16T15:07:57;4.68;;;1.10;;
27985;SDS011;15453;53.692;10.168;2022-10-16T15:10:23;4.72;;;1.48;;
27985;SDS011;15453;53.692;10.168;2022-10-16T15:12:50;4.25;;;0.95;;
27985;SDS011;15453;53.692;10.168;2022-10-16T15:17:47;4.13;;;1.65;;
27985;SDS011;15453;53.692;10.168;2022-10-16T15:20:13;5.22;;;1.42;;
27985;SDS011;15453;53.692;10.168;2022-10-16T15:22:38;3.05;;;1.02;;
27985;SDS011;15453;53.692;10.168;2022-10-16T15:25:09;3.78;;;1.40;;
27985;SDS011;15453;53.692;10.168;2022-10-16T15:27:50;4.55;;;1.27;;
27985;SDS011;15453;53.692;10.168;2022-10-16T15:30:15;3.30;;;1.10;;
27985;SDS011;15453;53.692;10.168;2022-10-16T15:32:40;7.15;;;1.30;;
27985;SDS011;15453;53.692;10.168;2022-10-16T15:35:08;2.90;;;1.10;;
27985;SDS011;15453;53.692;10.168;2022-10-16T15:37:34;4.47;;;1.13;;
27985;SDS011;15453;53.692;10.168;2022-10-16T15:39:59;3.67;;;1.40;;
27985;SDS011;15453;53.692;10.168;2022-10-16T15:42:24;3.10;;;1.50;;
27985;SDS011;15453;53.692;10.168;2022-10-16T15:44:49;6.72;;;1.42;;
27985;SDS011;15453;53.692;10.168;2022-10-16T15:47:14;5.90;;;1.30;;
27985;SDS011;15453;53.692;10.168;2022-10-16T15:49:40;6.65;;;1.55;;
27985;SDS011;15453;53.692;10.168;2022-10-16T15:52:05;8.82;;;1.92;;
27985;SDS011;15453;53.692;10.168;2022-10-16T15:54:30;5.78;;;1.98;;
27985;SDS011;15453;53.692;10.168;2022-10-16T15:56:55;4.68;;;2.20;;
27985;SDS011;15453;53.692;10.168;2022-10-16T15:59:21;5.65;;;1.85;;
27985;SDS011;15453;53.692;10.168;2022-10-16T16:01:46;5.40;;;1.58;;
27985;SDS011;15453;53.692;10.168;2022-10-16T16:04:11;6.25;;;2.33;;
27985;SDS011;15453;53.692;10.168;2022-10-16T16:06:37;5.65;;;1.70;;
27985;SDS011;15453;53.692;10.168;2022-10-16T16:09:04;6.82;;;1.48;;
27985;SDS011;15453;53.692;10.168;2022-10-16T16:11:29;4.63;;;1.58;;
27985;SDS011;15453;53.692;10.168;2022-10-16T16:13:56;5.57;;;1.55;;
27985;SDS011;15453;53.692;10.168;2022-10-16T16:16:22;6.82;;;1.50;;
27985;SDS011;15453;53.692;10.168;2022-10-16T16:18:47;3.20;;;1.05;;
27985;SDS011;15453;53.692;10.168;2022-10-16T16:21:14;4.53;;;1.30;;
27985;SDS011;15453;53.692;10.168;2022-10-16T16:23:39;5.78;;;1.90;;